Chirnside, United Kingdom
Current Conditions -  °F | °C
As of 6:50 PM on Thursday 23 Oct 2014 (Local Time) from EGQM Reporting Station
Few Clouds Few Clouds  
Wind Chill: 57°   Ceiling: Unl
Heat Index: 57°   Visibility: 6mi
Dew Point: 52°   Wind: 17mph
Humidity: 82%   Direction: 230°SW
Pressure: 29.74"   Gusts: NA
Location:  55.8°N, 2.21°W
Report Text: EGQM 231750Z AUTO 23015KT 9999 FEW140/// 14/11 Q1007
Loading
Personal Weather Stations






























Interactive Weather Map
Tropical Storm Tracking
New forecast layout! Learn more

10-Day Weather Forecast

Advertisements
Track Severe Weather on mobile